KFSD

Joe Foss Field Airport

Sioux Falls, South Dakota, USA
METAR KFSD 231412Z 31015KT 3SM BR OVC007 M09/M11 A3019 RMK AO2 T10941111 $
Observed Flight Rules
Feb-23 @ 14:12 UTC (28 minutes ago) Instrument Flight Rules
Wind Visibility Clouds Conditions
310° at 15 knots 3 miles
  • Overcast at 700' AGL
  • Mist
Temperatures Readings
Current -9°C / 16°F
Dewpoint -11°C / 12°F
Humidity 86%
Altimeter 30.19" Hg
Pressure 1022 hPa
Elevation 436
METAR KFSD 231412Z 31015KT 3SM BR OVC007 M09/M11 A3019 RMK AO2 T10941111 $
Observed Flight Rules
Feb-23 @ 14:12 UTC
(28 minutes ago)
IFR
Wind Visibility
310° at 15 knots 3 miles
Clouds
  • Overcast at 700' AGL
Conditions
  • Mist
Temperature Dewpoint
-9°C / 16°F -11°C / 12°F
Humidity Altimeter Pressure
86% 30.19" Hg 1022 hPa